sensor_id;sensor_type;location;lat;lon;timestamp;pressure;altitude;pressure_sealevel;temperature;humidity
29417;BME280;28421;51.030;4.006;2023-04-25T03:15:43;101275.09;;;7.29;81.63
29417;BME280;28421;51.030;4.006;2023-04-25T03:18:09;101227.78;;;7.01;81.63
29417;BME280;28421;51.030;4.006;2023-04-25T03:20:34;101282.69;;;7.24;81.32
29417;BME280;28421;51.030;4.006;2023-04-25T03:23:00;101212.31;;;6.85;81.48
29417;BME280;28421;51.030;4.006;2023-04-25T03:25:26;101243.44;;;7.05;81.42
29417;BME280;28421;51.030;4.006;2023-04-25T03:27:52;101224.84;;;6.94;81.46
29417;BME280;28421;51.030;4.006;2023-04-25T03:30:18;101238.63;;;6.89;82.66
29417;BME280;28421;51.030;4.006;2023-04-25T03:32:44;101241.88;;;7.03;82.36
29417;BME280;28421;51.030;4.006;2023-04-25T03:35:12;101261.56;;;7.02;82.61
29417;BME280;28421;51.030;4.006;2023-04-25T03:37:38;101253.81;;;6.89;82.56
29417;BME280;28421;51.030;4.006;2023-04-25T03:40:03;101220.44;;;6.73;81.50
29417;BME280;28421;51.030;4.006;2023-04-25T03:42:49;101262.53;;;6.81;80.45
29417;BME280;28421;51.030;4.006;2023-04-25T03:45:15;101247.16;;;6.73;81.41
29417;BME280;28421;51.030;4.006;2023-04-25T03:47:40;101245.19;;;6.66;81.52
29417;BME280;28421;51.030;4.006;2023-04-25T03:50:06;101244.59;;;6.62;81.65
29417;BME280;28421;51.030;4.006;2023-04-25T03:52:32;101257.53;;;6.57;81.24
29417;BME280;28421;51.030;4.006;2023-04-25T03:54:58;101257.75;;;6.35;80.82
29417;BME280;28421;51.030;4.006;2023-04-25T03:57:24;101272.22;;;6.32;80.99
29417;BME280;28421;51.030;4.006;2023-04-25T03:59:49;101268.31;;;6.46;80.13
29417;BME280;28421;51.030;4.006;2023-04-25T04:02:15;101278.19;;;6.55;79.52
29417;BME280;28421;51.030;4.006;2023-04-25T04:04:41;101254.84;;;6.17;79.49
29417;BME280;28421;51.030;4.006;2023-04-25T04:07:06;101267.63;;;6.44;79.18
29417;BME280;28421;51.030;4.006;2023-04-25T04:09:38;101287.59;;;6.50;79.41
29417;BME280;28421;51.030;4.006;2023-04-25T04:12:08;101292.69;;;6.62;79.89
29417;BME280;28421;51.030;4.006;2023-04-25T04:14:35;101290.25;;;6.50;78.86
29417;BME280;28421;51.030;4.006;2023-04-25T04:17:00;101291.66;;;6.44;78.28
29417;BME280;28421;51.030;4.006;2023-04-25T04:19:27;101288.22;;;6.32;77.87
29417;BME280;28421;51.030;4.006;2023-04-25T04:22:07;101261.69;;;6.40;77.93
29417;BME280;28421;51.030;4.006;2023-04-25T04:24:33;101266.44;;;6.27;77.28
29417;BME280;28421;51.030;4.006;2023-04-25T04:27:03;101293.59;;;6.42;77.56
29417;BME280;28421;51.030;4.006;2023-04-25T04:29:34;101276.44;;;6.35;77.44
29417;BME280;28421;51.030;4.006;2023-04-25T04:32:15;101264.50;;;6.39;77.16
29417;BME280;28421;51.030;4.006;2023-04-25T04:34:41;101310.81;;;6.59;77.34
29417;BME280;28421;51.030;4.006;2023-04-25T04:37:07;101291.66;;;6.44;77.54
29417;BME280;28421;51.030;4.006;2023-04-25T04:39:34;101272.38;;;6.40;77.53
29417;BME280;28421;51.030;4.006;2023-04-25T04:42:09;101292.00;;;6.60;77.20
29417;BME280;28421;51.030;4.006;2023-04-25T04:44:51;101293.59;;;6.72;77.62
29417;BME280;28421;51.030;4.006;2023-04-25T04:47:26;101295.50;;;6.61;76.80
29417;BME280;28421;51.030;4.006;2023-04-25T04:50:16;101306.19;;;6.61;76.87
29417;BME280;28421;51.030;4.006;2023-04-25T04:53:00;101282.00;;;6.62;76.93
29417;BME280;28421;51.030;4.006;2023-04-25T04:55:42;101301.63;;;6.82;76.57
29417;BME280;28421;51.030;4.006;2023-04-25T04:58:31;101308.41;;;6.96;76.87
29417;BME280;28421;51.030;4.006;2023-04-25T05:01:12;101291.31;;;6.68;76.20
29417;BME280;28421;51.030;4.006;2023-04-25T05:03:55;101296.84;;;6.76;75.80
29417;BME280;28421;51.030;4.006;2023-04-25T05:06:45;101338.47;;;6.88;76.26
29417;BME280;28421;51.030;4.006;2023-04-25T05:09:42;101331.75;;;6.84;76.26
29417;BME280;28421;51.030;4.006;2023-04-25T05:12:31;101337.31;;;6.71;76.26
29417;BME280;28421;51.030;4.006;2023-04-25T05:15:35;101344.63;;;6.69;76.45
29417;BME280;28421;51.030;4.006;2023-04-25T05:18:19;101354.84;;;6.95;76.51
29417;BME280;28421;51.030;4.006;2023-04-25T05:21:04;101373.03;;;7.11;76.32
29417;BME280;28421;51.030;4.006;2023-04-25T05:24:05;101350.06;;;6.89;75.86
29417;BME280;28421;51.030;4.006;2023-04-25T05:26:49;101344.06;;;6.76;76.36
29417;BME280;28421;51.030;4.006;2023-04-25T05:29:40;101348.63;;;6.85;76.68
29417;BME280;28421;51.030;4.006;2023-04-25T05:32:28;101368.09;;;7.06;76.13
29417;BME280;28421;51.030;4.006;2023-04-25T05:34:54;101330.47;;;6.88;76.07
29417;BME280;28421;51.030;4.006;2023-04-25T05:37:35;101371.44;;;6.98;75.29
29417;BME280;28421;51.030;4.006;2023-04-25T05:40:12;101369.72;;;6.88;75.73
29417;BME280;28421;51.030;4.006;2023-04-25T05:42:43;101383.97;;;6.67;75.88
29417;BME280;28421;51.030;4.006;2023-04-25T05:45:29;101391.66;;;6.51;76.40
29417;BME280;28421;51.030;4.006;2023-04-25T05:48:08;101388.31;;;6.89;76.46
29417;BME280;28421;51.030;4.006;2023-04-25T05:50:56;101394.84;;;7.06;76.05
29417;BME280;28421;51.030;4.006;2023-04-25T05:53:39;101380.47;;;7.07;74.98
29417;BME280;28421;51.030;4.006;2023-04-25T05:56:05;101373.41;;;6.96;74.85
29417;BME280;28421;51.030;4.006;2023-04-25T05:58:31;101334.59;;;6.62;74.92
29417;BME280;28421;51.030;4.006;2023-04-25T06:00:58;101398.28;;;7.28;75.67
29417;BME280;28421;51.030;4.006;2023-04-25T06:03:23;101377.34;;;7.42;75.14
29417;BME280;28421;51.030;4.006;2023-04-25T06:05:49;101382.13;;;7.58;74.18
29417;BME280;28421;51.030;4.006;2023-04-25T06:08:15;101397.22;;;7.69;74.20
29417;BME280;28421;51.030;4.006;2023-04-25T06:10:41;101399.03;;;7.78;73.59
29417;BME280;28421;51.030;4.006;2023-04-25T06:13:07;101402.34;;;7.22;72.21
29417;BME280;28421;51.030;4.006;2023-04-25T06:15:34;101442.41;;;7.62;72.50
29417;BME280;28421;51.030;4.006;2023-04-25T06:18:00;101396.66;;;7.65;72.64
29417;BME280;28421;51.030;4.006;2023-04-25T06:20:26;101427.88;;;7.45;71.58
29417;BME280;28421;51.030;4.006;2023-04-25T06:22:54;101416.38;;;7.64;72.55
29417;BME280;28421;51.030;4.006;2023-04-25T06:25:25;101398.19;;;7.78;72.54
29417;BME280;28421;51.030;4.006;2023-04-25T06:27:51;101407.28;;;7.27;72.14
29417;BME280;28421;51.030;4.006;2023-04-25T06:30:16;101386.91;;;7.35;73.11
29417;BME280;28421;51.030;4.006;2023-04-25T06:32:49;101429.22;;;7.90;71.20
29417;BME280;28421;51.030;4.006;2023-04-25T06:35:15;101415.41;;;7.85;70.24
29417;BME280;28421;51.030;4.006;2023-04-25T06:37:40;101418.22;;;8.03;69.50
29417;BME280;28421;51.030;4.006;2023-04-25T06:40:06;101421.03;;;7.72;69.20
29417;BME280;28421;51.030;4.006;2023-04-25T06:42:32;101427.91;;;7.75;69.87
29417;BME280;28421;51.030;4.006;2023-04-25T06:44:58;101419.19;;;7.13;69.58
29417;BME280;28421;51.030;4.006;2023-04-25T06:47:26;101438.78;;;7.73;69.76
29417;BME280;28421;51.030;4.006;2023-04-25T06:49:52;101477.28;;;8.01;69.42
29417;BME280;28421;51.030;4.006;2023-04-25T06:52:19;101440.47;;;7.64;69.24
29417;BME280;28421;51.030;4.006;2023-04-25T06:54:46;101446.97;;;7.81;69.75
29417;BME280;28421;51.030;4.006;2023-04-25T06:57:21;101447.66;;;8.03;69.32
29417;BME280;28421;51.030;4.006;2023-04-25T06:59:47;101450.63;;;8.29;68.68
29417;BME280;28421;51.030;4.006;2023-04-25T07:02:12;101472.59;;;8.61;67.18
29417;BME280;28421;51.030;4.006;2023-04-25T07:04:38;101472.47;;;8.24;66.59
29417;BME280;28421;51.030;4.006;2023-04-25T07:07:03;101483.75;;;8.57;66.13
29417;BME280;28421;51.030;4.006;2023-04-25T07:09:52;101467.53;;;8.58;65.62
29417;BME280;28421;51.030;4.006;2023-04-25T07:12:17;101481.69;;;8.98;66.96
29417;BME280;28421;51.030;4.006;2023-04-25T07:14:43;101486.09;;;8.89;64.92
29417;BME280;28421;51.030;4.006;2023-04-25T07:17:09;101458.75;;;8.76;64.76
29417;BME280;28421;51.030;4.006;2023-04-25T07:19:35;101489.09;;;8.76;63.84
29417;BME280;28421;51.030;4.006;2023-04-25T07:22:02;101445.41;;;8.08;63.50
29417;BME280;28421;51.030;4.006;2023-04-25T07:24:28;101481.78;;;8.30;62.64
29417;BME280;28421;51.030;4.006;2023-04-25T07:26:55;101455.56;;;7.94;60.41
29417;BME280;28421;51.030;4.006;2023-04-25T07:29:26;101466.69;;;7.80;61.44
29417;BME280;28421;51.030;4.006;2023-04-25T07:31:51;101497.81;;;7.91;62.98
29417;BME280;28421;51.030;4.006;2023-04-25T07:34:19;101481.91;;;7.99;63.00
29417;BME280;28421;51.030;4.006;2023-04-25T07:36:44;101494.91;;;8.13;62.24
29417;BME280;28421;51.030;4.006;2023-04-25T07:39:10;101482.34;;;8.23;63.17
29417;BME280;28421;51.030;4.006;2023-04-25T07:41:37;101508.47;;;8.51;61.44
29417;BME280;28421;51.030;4.006;2023-04-25T07:44:03;101511.13;;;8.60;62.17
29417;BME280;28421;51.030;4.006;2023-04-25T07:46:30;101464.31;;;8.26;61.79
29417;BME280;28421;51.030;4.006;2023-04-25T07:48:55;101499.94;;;8.84;62.60
29417;BME280;28421;51.030;4.006;2023-04-25T07:51:21;101456.53;;;8.61;58.73
29417;BME280;28421;51.030;4.006;2023-04-25T07:53:48;101507.03;;;9.23;59.00
29417;BME280;28421;51.030;4.006;2023-04-25T07:56:15;101474.88;;;9.13;57.21
29417;BME280;28421;51.030;4.006;2023-04-25T07:58:44;101493.03;;;8.82;58.08
29417;BME280;28421;51.030;4.006;2023-04-25T08:01:12;101508.94;;;8.93;57.79
29417;BME280;28421;51.030;4.006;2023-04-25T08:03:38;101522.00;;;8.39;57.16
29417;BME280;28421;51.030;4.006;2023-04-25T08:06:09;101506.22;;;8.46;57.09
29417;BME280;28421;51.030;4.006;2023-04-25T08:08:42;101505.19;;;8.57;57.48
29417;BME280;28421;51.030;4.006;2023-04-25T08:11:12;101524.22;;;8.15;56.81
29417;BME280;28421;51.030;4.006;2023-04-25T08:13:37;101520.00;;;8.22;57.18
29417;BME280;28421;51.030;4.006;2023-04-25T08:16:03;101541.06;;;8.46;57.37
29417;BME280;28421;51.030;4.006;2023-04-25T08:18:29;101562.34;;;8.57;58.33
29417;BME280;28421;51.030;4.006;2023-04-25T08:20:54;101546.84;;;8.51;59.43
29417;BME280;28421;51.030;4.006;2023-04-25T08:23:19;101568.53;;;8.58;59.61
29417;BME280;28421;51.030;4.006;2023-04-25T08:26:00;101517.16;;;8.33;57.28
29417;BME280;28421;51.030;4.006;2023-04-25T08:28:27;101513.81;;;8.41;57.48
29417;BME280;28421;51.030;4.006;2023-04-25T08:30:55;101518.03;;;8.53;54.77
29417;BME280;28421;51.030;4.006;2023-04-25T08:33:20;101574.41;;;9.10;55.57
29417;BME280;28421;51.030;4.006;2023-04-25T08:36:05;101556.94;;;9.43;55.79
29417;BME280;28421;51.030;4.006;2023-04-25T08:38:31;101564.97;;;9.80;56.56
29417;BME280;28421;51.030;4.006;2023-04-25T08:40:59;101544.03;;;9.56;54.56
29417;BME280;28421;51.030;4.006;2023-04-25T08:43:28;101548.59;;;9.74;54.72
29417;BME280;28421;51.030;4.006;2023-04-25T08:46:00;101559.75;;;9.79;57.23
29417;BME280;28421;51.030;4.006;2023-04-25T08:48:40;101559.88;;;10.05;58.24
29417;BME280;28421;51.030;4.006;2023-04-25T08:51:07;101598.91;;;10.54;58.58
29417;BME280;28421;51.030;4.006;2023-04-25T08:53:33;101589.09;;;10.53;56.56
29417;BME280;28421;51.030;4.006;2023-04-25T08:56:02;101576.84;;;10.33;55.50
29417;BME280;28421;51.030;4.006;2023-04-25T08:58:28;101568.16;;;11.01;55.62
29417;BME280;28421;51.030;4.006;2023-04-25T09:00:54;101552.03;;;11.01;54.73
29417;BME280;28421;51.030;4.006;2023-04-25T09:03:22;101593.72;;;10.97;55.31
29417;BME280;28421;51.030;4.006;2023-04-25T09:05:49;101573.84;;;10.72;54.16
29417;BME280;28421;51.030;4.006;2023-04-25T09:08:15;101593.28;;;10.20;53.29
29417;BME280;28421;51.030;4.006;2023-04-25T09:10:41;101601.97;;;10.14;53.66
29417;BME280;28421;51.030;4.006;2023-04-25T09:13:13;101587.59;;;10.33;54.45
29417;BME280;28421;51.030;4.006;2023-04-25T09:16:12;101610.66;;;10.71;54.13
29417;BME280;28421;51.030;4.006;2023-04-25T09:18:58;101569.31;;;10.98;54.65
29417;BME280;28421;51.030;4.006;2023-04-25T09:21:24;101606.38;;;11.04;50.88
29417;BME280;28421;51.030;4.006;2023-04-25T09:23:50;101602.25;;;10.56;52.99
29417;BME280;28421;51.030;4.006;2023-04-25T09:26:19;101633.59;;;12.05;53.25
29417;BME280;28421;51.030;4.006;2023-04-25T09:28:45;101590.31;;;12.15;51.41
29417;BME280;28421;51.030;4.006;2023-04-25T09:31:24;101598.81;;;12.36;50.46
29417;BME280;28421;51.030;4.006;2023-04-25T09:33:58;101628.97;;;11.63;50.98
29417;BME280;28421;51.030;4.006;2023-04-25T09:36:26;101611.31;;;10.73;49.87
29417;BME280;28421;51.030;4.006;2023-04-25T09:39:01;101614.03;;;10.55;52.05
29417;BME280;28421;51.030;4.006;2023-04-25T09:41:28;101629.59;;;10.69;53.16
29417;BME280;28421;51.030;4.006;2023-04-25T09:43:58;101626.41;;;10.84;51.96
29417;BME280;28421;51.030;4.006;2023-04-25T09:46:36;101628.00;;;10.77;54.01
29417;BME280;28421;51.030;4.006;2023-04-25T09:49:07;101667.88;;;10.45;55.09
29417;BME280;28421;51.030;4.006;2023-04-25T09:51:39;101662.44;;;10.00;57.44
29417;BME280;28421;51.030;4.006;2023-04-25T09:54:06;101673.91;;;9.45;59.81
29417;BME280;28421;51.030;4.006;2023-04-25T09:56:36;101689.16;;;9.45;59.47
29417;BME280;28421;51.030;4.006;2023-04-25T09:59:05;101680.31;;;9.25;59.90
29417;BME280;28421;51.030;4.006;2023-04-25T10:01:33;101684.66;;;9.36;58.88
29417;BME280;28421;51.030;4.006;2023-04-25T10:04:11;101719.38;;;9.66;60.26
29417;BME280;28421;51.030;4.006;2023-04-25T10:06:57;101703.75;;;9.23;62.26
29417;BME280;28421;51.030;4.006;2023-04-25T10:09:25;101715.72;;;9.00;64.20
29417;BME280;28421;51.030;4.006;2023-04-25T10:11:51;101748.84;;;8.60;66.15
29417;BME280;28421;51.030;4.006;2023-04-25T10:14:19;101733.13;;;8.05;68.13
29417;BME280;28421;51.030;4.006;2023-04-25T10:16:45;101749.91;;;8.17;70.54
29417;BME280;28421;51.030;4.006;2023-04-25T10:19:11;101718.91;;;7.63;71.40
29417;BME280;28421;51.030;4.006;2023-04-25T10:21:46;101696.38;;;7.35;72.18
29417;BME280;28421;51.030;4.006;2023-04-25T10:24:14;101718.63;;;7.56;69.78
29417;BME280;28421;51.030;4.006;2023-04-25T10:26:40;101721.78;;;7.50;71.64
29417;BME280;28421;51.030;4.006;2023-04-25T10:29:06;101692.66;;;7.47;71.50
29417;BME280;28421;51.030;4.006;2023-04-25T10:31:32;101714.09;;;7.36;71.76
29417;BME280;28421;51.030;4.006;2023-04-25T10:33:59;101746.88;;;7.70;71.80
29417;BME280;28421;51.030;4.006;2023-04-25T10:36:25;101747.09;;;7.88;73.41
29417;BME280;28421;51.030;4.006;2023-04-25T10:38:52;101744.84;;;7.62;71.42
29417;BME280;28421;51.030;4.006;2023-04-25T10:41:20;101708.03;;;7.76;71.20
29417;BME280;28421;51.030;4.006;2023-04-25T10:43:47;101713.31;;;8.27;71.19
29417;BME280;28421;51.030;4.006;2023-04-25T10:46:24;101751.09;;;8.55;69.85
29417;BME280;28421;51.030;4.006;2023-04-25T10:48:53;101716.69;;;8.69;68.13
29417;BME280;28421;51.030;4.006;2023-04-25T10:51:22;101724.34;;;8.93;68.03
29417;BME280;28421;51.030;4.006;2023-04-25T10:56:20;101749.19;;;9.54;65.51
29417;BME280;28421;51.030;4.006;2023-04-25T10:58:47;101714.75;;;9.39;64.13
29417;BME280;28421;51.030;4.006;2023-04-25T11:01:13;101698.22;;;8.86;60.85
29417;BME280;28421;51.030;4.006;2023-04-25T11:03:41;101736.38;;;9.09;61.95
29417;BME280;28421;51.030;4.006;2023-04-25T11:06:23;101733.94;;;8.86;63.17
29417;BME280;28421;51.030;4.006;2023-04-25T11:08:52;101715.44;;;8.74;62.73
29417;BME280;28421;51.030;4.006;2023-04-25T11:11:18;101745.78;;;8.74;56.75
29417;BME280;28421;51.030;4.006;2023-04-25T11:13:47;101723.47;;;8.64;57.91
29417;BME280;28421;51.030;4.006;2023-04-25T11:16:13;101719.00;;;9.13;58.16
29417;BME280;28421;51.030;4.006;2023-04-25T11:18:42;101718.59;;;9.17;57.65
29417;BME280;28421;51.030;4.006;2023-04-25T11:21:09;101723.19;;;9.64;59.20
29417;BME280;28421;51.030;4.006;2023-04-25T11:23:34;101699.81;;;9.84;57.54
29417;BME280;28421;51.030;4.006;2023-04-25T11:26:00;101740.59;;;10.44;57.63
29417;BME280;28421;51.030;4.006;2023-04-25T11:28:28;101722.00;;;9.86;56.37
29417;BME280;28421;51.030;4.006;2023-04-25T11:30:54;101711.03;;;10.07;55.45
29417;BME280;28421;51.030;4.006;2023-04-25T11:33:24;101691.19;;;10.17;59.30
29417;BME280;28421;51.030;4.006;2023-04-25T11:35:53;101698.16;;;10.65;57.40
29417;BME280;28421;51.030;4.006;2023-04-25T11:38:18;101733.78;;;10.95;57.14
29417;BME280;28421;51.030;4.006;2023-04-25T11:40:44;101694.31;;;10.50;53.25
29417;BME280;28421;51.030;4.006;2023-04-25T11:43:09;101697.91;;;10.41;52.92
29417;BME280;28421;51.030;4.006;2023-04-25T11:45:36;101679.31;;;10.65;53.42
29417;BME280;28421;51.030;4.006;2023-04-25T11:48:02;101711.84;;;10.90;52.77
29417;BME280;28421;51.030;4.006;2023-04-25T11:50:28;101715.72;;;11.05;51.60
29417;BME280;28421;51.030;4.006;2023-04-25T11:52:56;101705.38;;;10.65;49.12
29417;BME280;28421;51.030;4.006;2023-04-25T11:55:22;101700.00;;;11.18;49.07
29417;BME280;28421;51.030;4.006;2023-04-25T11:57:48;101691.25;;;11.16;49.33
29417;BME280;28421;51.030;4.006;2023-04-25T12:00:21;101692.13;;;11.43;47.29
29417;BME280;28421;51.030;4.006;2023-04-25T12:02:52;101728.44;;;12.09;47.73
29417;BME280;28421;51.030;4.006;2023-04-25T12:05:19;101722.31;;;11.11;49.07
29417;BME280;28421;51.030;4.006;2023-04-25T12:07:46;101735.91;;;10.74;50.07
29417;BME280;28421;51.030;4.006;2023-04-25T12:10:13;101726.25;;;10.26;51.76
29417;BME280;28421;51.030;4.006;2023-04-25T12:12:46;101742.50;;;10.34;52.58
29417;BME280;28421;51.030;4.006;2023-04-25T12:15:18;101761.53;;;10.50;50.24
29417;BME280;28421;51.030;4.006;2023-04-25T12:17:48;101726.56;;;10.50;52.40
29417;BME280;28421;51.030;4.006;2023-04-25T12:20:16;101716.41;;;10.44;49.73
29417;BME280;28421;51.030;4.006;2023-04-25T12:22:46;101711.22;;;10.78;51.22
29417;BME280;28421;51.030;4.006;2023-04-25T12:28:11;101714.16;;;10.85;47.37
29417;BME280;28421;51.030;4.006;2023-04-25T12:31:00;101758.38;;;11.36;49.09
29417;BME280;28421;51.030;4.006;2023-04-25T12:33:30;101747.56;;;11.72;48.13
29417;BME280;28421;51.030;4.006;2023-04-25T12:35:56;101728.13;;;11.86;50.12
29417;BME280;28421;51.030;4.006;2023-04-25T12:38:26;101755.41;;;12.43;48.52
29417;BME280;28421;51.030;4.006;2023-04-25T12:40:53;101714.53;;;11.87;47.13
29417;BME280;28421;51.030;4.006;2023-04-25T12:43:19;101723.22;;;12.07;47.48
29417;BME280;28421;51.030;4.006;2023-04-25T12:45:47;101711.91;;;12.38;45.08
29417;BME280;28421;51.030;4.006;2023-04-25T12:48:13;101713.28;;;12.50;44.67
29417;BME280;28421;51.030;4.006;2023-04-25T12:50:38;101734.59;;;12.27;44.99
29417;BME280;28421;51.030;4.006;2023-04-25T12:53:04;101746.25;;;12.02;45.23
29417;BME280;28421;51.030;4.006;2023-04-25T12:55:29;101733.44;;;11.52;45.82
29417;BME280;28421;51.030;4.006;2023-04-25T12:57:54;101748.22;;;11.48;46.54
29417;BME280;28421;51.030;4.006;2023-04-25T13:00:20;101726.78;;;11.02;47.45
29417;BME280;28421;51.030;4.006;2023-04-25T13:02:46;101699.13;;;11.36;47.95
29417;BME280;28421;51.030;4.006;2023-04-25T13:05:14;101731.84;;;11.05;46.51
29417;BME280;28421;51.030;4.006;2023-04-25T13:07:40;101746.16;;;10.88;48.79
29417;BME280;28421;51.030;4.006;2023-04-25T13:10:07;101728.63;;;11.19;49.56
29417;BME280;28421;51.030;4.006;2023-04-25T13:12:33;101738.38;;;11.38;48.96
29417;BME280;28421;51.030;4.006;2023-04-25T13:14:58;101722.59;;;11.61;49.38
29417;BME280;28421;51.030;4.006;2023-04-25T13:17:24;101743.03;;;12.24;47.25
29417;BME280;28421;51.030;4.006;2023-04-25T13:19:49;101713.56;;;12.31;44.83
29417;BME280;28421;51.030;4.006;2023-04-25T13:22:15;101752.50;;;12.02;42.87
29417;BME280;28421;51.030;4.006;2023-04-25T13:24:42;101726.78;;;11.64;44.40
29417;BME280;28421;51.030;4.006;2023-04-25T13:27:08;101719.50;;;11.56;44.65
29417;BME280;28421;51.030;4.006;2023-04-25T13:29:34;101703.88;;;11.60;44.21
29417;BME280;28421;51.030;4.006;2023-04-25T13:32:01;101727.25;;;12.03;45.05
29417;BME280;28421;51.030;4.006;2023-04-25T13:34:28;101719.69;;;12.41;44.60
29417;BME280;28421;51.030;4.006;2023-04-25T13:36:54;101739.91;;;12.45;44.96
29417;BME280;28421;51.030;4.006;2023-04-25T13:39:19;101732.72;;;12.19;44.34
29417;BME280;28421;51.030;4.006;2023-04-25T13:41:45;101704.50;;;11.80;45.48
29417;BME280;28421;51.030;4.006;2023-04-25T13:44:11;101724.66;;;11.93;46.48
29417;BME280;28421;51.030;4.006;2023-04-25T13:46:36;101734.44;;;11.77;46.73
29417;BME280;28421;51.030;4.006;2023-04-25T13:49:06;101725.53;;;11.50;46.76
29417;BME280;28421;51.030;4.006;2023-04-25T13:51:31;101732.19;;;11.64;47.19
29417;BME280;28421;51.030;4.006;2023-04-25T13:53:57;101726.19;;;11.52;46.53
29417;BME280;28421;51.030;4.006;2023-04-25T13:56:22;101731.41;;;11.98;43.34
29417;BME280;28421;51.030;4.006;2023-04-25T13:58:50;101717.50;;;12.10;42.97
29417;BME280;28421;51.030;4.006;2023-04-25T14:01:17;101757.50;;;12.57;43.49
29417;BME280;28421;51.030;4.006;2023-04-25T14:03:43;101758.25;;;12.84;43.16
29417;BME280;28421;51.030;4.006;2023-04-25T14:06:08;101730.47;;;12.07;44.09
29417;BME280;28421;51.030;4.006;2023-04-25T14:08:34;101721.47;;;11.98;43.82
29417;BME280;28421;51.030;4.006;2023-04-25T14:11:00;101710.38;;;11.31;44.48
29417;BME280;28421;51.030;4.006;2023-04-25T14:13:26;101738.69;;;11.17;44.57
29417;BME280;28421;51.030;4.006;2023-04-25T14:15:52;101770.72;;;11.82;44.26
29417;BME280;28421;51.030;4.006;2023-04-25T14:18:18;101742.19;;;12.24;45.00
29417;BME280;28421;51.030;4.006;2023-04-25T14:20:44;101723.88;;;12.43;44.96
29417;BME280;28421;51.030;4.006;2023-04-25T14:23:09;101747.44;;;11.99;42.53
29417;BME280;28421;51.030;4.006;2023-04-25T14:25:35;101731.38;;;11.89;42.93
29417;BME280;28421;51.030;4.006;2023-04-25T14:28:01;101744.09;;;11.17;44.44
29417;BME280;28421;51.030;4.006;2023-04-25T14:30:27;101754.91;;;11.61;45.95
29417;BME280;28421;51.030;4.006;2023-04-25T14:32:53;101749.97;;;12.01;42.91
29417;BME280;28421;51.030;4.006;2023-04-25T14:35:21;101761.13;;;11.62;43.12
29417;BME280;28421;51.030;4.006;2023-04-25T14:37:46;101779.41;;;11.76;44.35
29417;BME280;28421;51.030;4.006;2023-04-25T14:40:12;101776.81;;;11.66;45.01
29417;BME280;28421;51.030;4.006;2023-04-25T14:42:40;101778.59;;;11.40;43.62
29417;BME280;28421;51.030;4.006;2023-04-25T14:45:07;101770.53;;;11.40;44.00
29417;BME280;28421;51.030;4.006;2023-04-25T14:47:36;101765.63;;;11.00;45.11
29417;BME280;28421;51.030;4.006;2023-04-25T14:50:03;101792.56;;;10.90;44.14
29417;BME280;28421;51.030;4.006;2023-04-25T14:52:30;101779.34;;;10.79;43.97
29417;BME280;28421;51.030;4.006;2023-04-25T14:54:56;101760.44;;;10.70;45.54
29417;BME280;28421;51.030;4.006;2023-04-25T14:57:21;101775.06;;;11.04;43.47
29417;BME280;28421;51.030;4.006;2023-04-25T14:59:47;101760.22;;;11.35;44.06
29417;BME280;28421;51.030;4.006;2023-04-25T15:02:12;101781.91;;;11.69;43.25
29417;BME280;28421;51.030;4.006;2023-04-25T15:04:38;101760.53;;;11.50;43.93
29417;BME280;28421;51.030;4.006;2023-04-25T15:07:03;101794.31;;;11.62;43.43
29417;BME280;28421;51.030;4.006;2023-04-25T15:09:29;101776.53;;;11.34;42.30
29417;BME280;28421;51.030;4.006;2023-04-25T15:11:56;101793.28;;;11.63;44.45
29417;BME280;28421;51.030;4.006;2023-04-25T15:14:22;101774.00;;;11.50;43.33
29417;BME280;28421;51.030;4.006;2023-04-25T15:16:47;101819.16;;;11.92;42.55
29417;BME280;28421;51.030;4.006;2023-04-25T15:19:13;101808.44;;;11.64;42.01
29417;BME280;28421;51.030;4.006;2023-04-25T15:21:39;101810.53;;;11.53;41.91
29417;BME280;28421;51.030;4.006;2023-04-25T15:24:04;101776.94;;;11.21;43.25
29417;BME280;28421;51.030;4.006;2023-04-25T15:26:30;101792.91;;;11.23;42.05
29417;BME280;28421;51.030;4.006;2023-04-25T15:28:55;101824.28;;;11.14;42.39
29417;BME280;28421;51.030;4.006;2023-04-25T15:31:22;101775.63;;;11.25;43.12
29417;BME280;28421;51.030;4.006;2023-04-25T15:33:47;101813.13;;;11.09;42.87
29417;BME280;28421;51.030;4.006;2023-04-25T15:36:12;101808.31;;;11.12;43.00
29417;BME280;28421;51.030;4.006;2023-04-25T15:38:41;101810.84;;;11.32;42.59
29417;BME280;28421;51.030;4.006;2023-04-25T15:41:06;101812.69;;;10.86;43.13
29417;BME280;28421;51.030;4.006;2023-04-25T15:43:32;101819.09;;;10.85;44.01
29417;BME280;28421;51.030;4.006;2023-04-25T15:46:00;101809.91;;;10.78;43.90
29417;BME280;28421;51.030;4.006;2023-04-25T15:48:26;101824.66;;;10.36;46.40
29417;BME280;28421;51.030;4.006;2023-04-25T15:50:51;101787.03;;;10.36;47.38
29417;BME280;28421;51.030;4.006;2023-04-25T15:53:17;101821.53;;;10.51;48.61
29417;BME280;28421;51.030;4.006;2023-04-25T15:55:42;101844.78;;;10.42;48.71
29417;BME280;28421;51.030;4.006;2023-04-25T15:58:08;101826.84;;;10.33;49.27
29417;BME280;28421;51.030;4.006;2023-04-25T16:00:34;101844.94;;;10.68;49.12
29417;BME280;28421;51.030;4.006;2023-04-25T16:03:02;101841.59;;;10.56;51.16
29417;BME280;28421;51.030;4.006;2023-04-25T16:05:28;101821.13;;;10.45;50.34
29417;BME280;28421;51.030;4.006;2023-04-25T16:07:54;101847.41;;;10.52;49.23
29417;BME280;28421;51.030;4.006;2023-04-25T16:10:19;101831.22;;;10.61;49.33
29417;BME280;28421;51.030;4.006;2023-04-25T16:12:46;101836.91;;;10.02;48.04
29417;BME280;28421;51.030;4.006;2023-04-25T16:15:15;101833.38;;;10.01;48.25
29417;BME280;28421;51.030;4.006;2023-04-25T16:17:41;101818.91;;;10.21;48.30
29417;BME280;28421;51.030;4.006;2023-04-25T16:20:07;101824.72;;;10.07;49.07
29417;BME280;28421;51.030;4.006;2023-04-25T16:22:41;101834.22;;;10.02;48.41
29417;BME280;28421;51.030;4.006;2023-04-25T16:25:07;101865.16;;;10.35;47.08